Time;durP1;ratioP1;P1;durP2;ratioP2;P2;SDS_P1;SDS_P2;PMS_P1;PMS_P2;Temp;Humidity;BMP_temperature;BMP_pressure;BME280_temperature;BME280_humidity;BME280_pressure;Samples;Min_cycle;Max_cycle;Signal;HPM_P1;HPM_P2
2022/12/23 00:00:37;;;;;;;67.05;31.05;;;;;;;;;;5031610;28;20025;-74
2022/12/23 00:03:03;;;;;;;70.90;31.83;;;;;;;;;;5047722;28;20445;-72
2022/12/23 00:05:29;;;;;;;60.15;30.98;;;;;;;;;;5047981;28;20029;-72
2022/12/23 00:07:55;;;;;;;64.57;30.38;;;;;;;;;;5045540;28;20061;-72
2022/12/23 00:10:21;;;;;;;60.17;30.60;;;;;;;;;;5048619;28;20063;-73
2022/12/23 00:15:32;;;;;;;61.70;30.08;;;;;;;;;;5045009;28;20101;-72
2022/12/23 00:17:58;;;;;;;64.07;31.60;;;;;;;;;;5032215;28;20119;-72
2022/12/23 00:20:24;;;;;;;63.08;31.67;;;;;;;;;;5052267;28;20378;-72
2022/12/23 00:23:05;;;;;;;61.33;28.77;;;;;;;;;;5050828;28;20045;-76
2022/12/23 00:25:43;;;;;;;57.60;29.35;;;;;;;;;;5054282;28;20029;-73
2022/12/23 00:28:11;;;;;;;62.15;30.58;;;;;;;;;;5051377;28;20098;-73
2022/12/23 00:30:38;;;;;;;75.50;31.73;;;;;;;;;;5045933;28;20150;-72
2022/12/23 00:33:04;;;;;;;63.15;30.17;;;;;;;;;;5048333;28;20033;-72
2022/12/23 00:35:31;;;;;;;63.42;29.60;;;;;;;;;;5036047;28;20481;-72
2022/12/23 00:37:57;;;;;;;69.75;31.90;;;;;;;;;;5049775;28;20037;-74
2022/12/23 00:43:10;;;;;;;60.13;31.15;;;;;;;;;;5049710;28;20638;-72
2022/12/23 00:45:36;;;;;;;58.50;28.60;;;;;;;;;;5050266;28;20970;-72
2022/12/23 00:50:47;;;;;;;67.85;30.40;;;;;;;;;;5053378;28;20037;-71
2022/12/23 00:53:13;;;;;;;59.90;30.02;;;;;;;;;;5050382;28;20624;-72
2022/12/23 00:55:39;;;;;;;68.03;31.27;;;;;;;;;;5042656;28;20113;-72
2022/12/23 00:58:05;;;;;;;66.05;30.58;;;;;;;;;;5047792;28;20087;-74
2022/12/23 01:06:07;;;;;;;65.70;31.43;;;;;;;;;;5028606;28;20044;-75
2022/12/23 01:08:33;;;;;;;67.80;32.47;;;;;;;;;;5044778;28;20171;-70
2022/12/23 01:11:03;;;;;;;67.47;31.38;;;;;;;;;;5052502;28;20060;-71
2022/12/23 01:13:29;;;;;;;66.18;32.58;;;;;;;;;;5048253;28;20028;-74
2022/12/23 01:16:02;;;;;;;74.72;33.97;;;;;;;;;;5044957;28;20044;-70
2022/12/23 01:18:28;;;;;;;81.82;33.65;;;;;;;;;;5050046;28;20474;-71
2022/12/23 01:20:54;;;;;;;82.60;34.47;;;;;;;;;;5048216;28;20112;-71
2022/12/23 01:23:20;;;;;;;75.00;32.67;;;;;;;;;;5032542;28;20036;-71
2022/12/23 01:25:47;;;;;;;74.28;33.85;;;;;;;;;;5033275;28;20029;-71
2022/12/23 01:28:13;;;;;;;77.07;32.10;;;;;;;;;;5050267;28;20059;-71
2022/12/23 01:30:39;;;;;;;81.40;35.15;;;;;;;;;;5051206;28;20504;-71
2022/12/23 01:33:05;;;;;;;75.45;33.55;;;;;;;;;;5050237;28;20032;-70
2022/12/23 01:35:31;;;;;;;70.57;31.48;;;;;;;;;;5034553;28;20032;-70
2022/12/23 01:37:57;;;;;;;78.32;34.13;;;;;;;;;;5037613;28;20033;-71
2022/12/23 01:40:23;;;;;;;72.93;31.08;;;;;;;;;;5033512;28;20033;-71
2022/12/23 01:42:49;;;;;;;71.30;32.63;;;;;;;;;;5049307;28;20143;-70
2022/12/23 01:45:20;;;;;;;69.72;30.88;;;;;;;;;;5051790;28;20036;-72
2022/12/23 01:47:51;;;;;;;65.70;28.60;;;;;;;;;;5043750;28;20059;-72
2022/12/23 01:50:17;;;;;;;66.15;31.40;;;;;;;;;;5048760;28;20037;-69
2022/12/23 01:52:45;;;;;;;63.85;29.30;;;;;;;;;;5045103;28;20098;-70
2022/12/23 01:55:12;;;;;;;68.32;30.50;;;;;;;;;;5050586;28;20033;-72
2022/12/23 01:57:40;;;;;;;71.60;30.13;;;;;;;;;;5047227;28;20036;-70
2022/12/23 02:05:37;;;;;;;78.80;30.63;;;;;;;;;;5047039;28;20090;-71
2022/12/23 02:10:48;;;;;;;82.38;32.33;;;;;;;;;;5048341;28;20080;-73
2022/12/23 02:13:34;;;;;;;82.88;31.48;;;;;;;;;;5044606;28;20482;-70
2022/12/23 02:16:17;;;;;;;76.78;30.35;;;;;;;;;;5037145;28;20163;-71
2022/12/23 02:18:52;;;;;;;77.97;32.08;;;;;;;;;;5045561;28;20484;-70
2022/12/23 02:21:24;;;;;;;107.50;35.40;;;;;;;;;;5045533;28;20032;-72
2022/12/23 02:24:08;;;;;;;116.93;37.08;;;;;;;;;;5047813;28;20649;-74
2022/12/23 02:26:52;;;;;;;103.53;36.38;;;;;;;;;;5031657;28;20079;-70
2022/12/23 02:29:28;;;;;;;121.32;36.75;;;;;;;;;;5047407;28;20488;-73
2022/12/23 02:31:57;;;;;;;120.75;39.03;;;;;;;;;;5048776;28;20033;-73
2022/12/23 02:34:34;;;;;;;105.45;36.22;;;;;;;;;;5045509;28;20465;-71
2022/12/23 02:37:19;;;;;;;111.97;38.38;;;;;;;;;;5049633;28;20029;-70
2022/12/23 02:39:54;;;;;;;116.65;36.47;;;;;;;;;;5047637;28;20039;-74
2022/12/23 02:42:23;;;;;;;111.60;36.35;;;;;;;;;;5046868;28;20026;-70
2022/12/23 02:44:58;;;;;;;107.00;35.30;;;;;;;;;;5045950;28;20032;-71
2022/12/23 02:47:27;;;;;;;93.85;34.30;;;;;;;;;;5022947;28;20022;-71
2022/12/23 02:49:55;;;;;;;94.63;32.88;;;;;;;;;;5035315;28;20492;-73
2022/12/23 02:52:23;;;;;;;106.70;34.28;;;;;;;;;;5033167;28;20029;-71
2022/12/23 02:54:55;;;;;;;107.57;33.53;;;;;;;;;;5047651;28;20417;-71
2022/12/23 02:57:25;;;;;;;92.13;32.35;;;;;;;;;;5050070;28;20032;-71
2022/12/23 02:59:51;;;;;;;87.78;31.92;;;;;;;;;;5048097;28;20040;-70
2022/12/23 03:02:18;;;;;;;93.05;33.20;;;;;;;;;;5044305;28;20037;-72
2022/12/23 03:04:44;;;;;;;99.85;32.03;;;;;;;;;;5029223;28;20025;-72
2022/12/23 03:07:15;;;;;;;92.80;32.13;;;;;;;;;;5048525;28;20040;-72
2022/12/23 03:09:50;;;;;;;101.03;33.00;;;;;;;;;;5032032;28;20041;-72
2022/12/23 03:12:30;;;;;;;93.95;29.70;;;;;;;;;;5049938;28;20554;-71
2022/12/23 03:15:07;;;;;;;85.72;30.83;;;;;;;;;;5045805;28;20033;-71
2022/12/23 03:17:33;;;;;;;90.72;30.27;;;;;;;;;;5049043;28;20040;-72
2022/12/23 03:19:59;;;;;;;91.82;30.60;;;;;;;;;;5049336;28;20033;-71
2022/12/23 03:22:34;;;;;;;104.53;30.40;;;;;;;;;;5047204;28;20063;-72
2022/12/23 03:25:18;;;;;;;97.45;31.75;;;;;;;;;;5048139;28;20032;-71
2022/12/23 03:28:03;;;;;;;90.68;29.73;;;;;;;;;;5031612;28;20116;-70
2022/12/23 03:30:30;;;;;;;88.97;30.52;;;;;;;;;;5048510;28;20034;-70
2022/12/23 03:33:14;;;;;;;96.88;29.83;;;;;;;;;;5039114;28;20061;-71
2022/12/23 03:35:43;;;;;;;90.47;30.08;;;;;;;;;;5047659;28;20445;-70
2022/12/23 03:38:11;;;;;;;95.88;31.42;;;;;;;;;;5048733;28;20029;-70
2022/12/23 03:40:47;;;;;;;107.55;31.40;;;;;;;;;;5048532;28;20025;-69
2022/12/23 03:43:33;;;;;;;90.88;29.85;;;;;;;;;;5021141;28;20159;-70
2022/12/23 03:46:03;;;;;;;91.13;29.75;;;;;;;;;;5015433;28;20037;-70
2022/12/23 03:48:38;;;;;;;106.85;32.55;;;;;;;;;;5037760;28;20048;-71
2022/12/23 03:51:05;;;;;;;93.47;31.75;;;;;;;;;;5052604;28;20021;-70
2022/12/23 03:53:33;;;;;;;100.53;31.02;;;;;;;;;;5053380;28;20032;-72
2022/12/23 03:56:02;;;;;;;92.95;30.48;;;;;;;;;;5048723;28;20021;-73
2022/12/23 03:58:33;;;;;;;91.30;31.75;;;;;;;;;;5041234;28;20040;-70
2022/12/23 04:01:18;;;;;;;82.55;29.45;;;;;;;;;;5050530;28;20111;-73
2022/12/23 04:04:02;;;;;;;88.88;29.30;;;;;;;;;;5036041;28;20051;-70
2022/12/23 04:06:33;;;;;;;89.97;30.95;;;;;;;;;;5050894;28;20029;-71
2022/12/23 04:08:59;;;;;;;77.97;27.95;;;;;;;;;;5053072;28;20040;-72
2022/12/23 04:11:25;;;;;;;85.43;30.35;;;;;;;;;;5050322;28;20029;-71
2022/12/23 04:13:52;;;;;;;86.78;30.20;;;;;;;;;;5032260;28;20469;-70
2022/12/23 04:16:18;;;;;;;82.82;28.25;;;;;;;;;;5048247;28;20025;-71
2022/12/23 04:18:44;;;;;;;80.97;29.73;;;;;;;;;;5042293;28;20560;-71
2022/12/23 04:21:10;;;;;;;76.80;26.58;;;;;;;;;;5048423;28;20069;-71
2022/12/23 04:23:36;;;;;;;81.57;28.45;;;;;;;;;;5046045;28;20420;-72
2022/12/23 04:26:03;;;;;;;92.38;29.92;;;;;;;;;;5033694;28;20053;-71
2022/12/23 04:28:29;;;;;;;83.55;29.95;;;;;;;;;;5019996;28;20052;-71
2022/12/23 04:30:55;;;;;;;89.03;29.60;;;;;;;;;;5050683;28;20036;-72
2022/12/23 04:33:21;;;;;;;72.95;29.13;;;;;;;;;;5042749;28;20044;-72
2022/12/23 04:35:47;;;;;;;74.07;29.48;;;;;;;;;;5046367;28;20036;-70
2022/12/23 04:38:13;;;;;;;89.55;30.48;;;;;;;;;;5046730;28;20107;-70
2022/12/23 04:40:39;;;;;;;75.88;28.70;;;;;;;;;;5040376;28;20120;-71
2022/12/23 04:43:05;;;;;;;81.88;29.40;;;;;;;;;;5025121;28;20485;-70
2022/12/23 04:45:32;;;;;;;83.22;30.02;;;;;;;;;;5049824;28;20091;-70
2022/12/23 04:47:58;;;;;;;83.55;30.58;;;;;;;;;;5047401;28;20034;-72
2022/12/23 04:50:24;;;;;;;93.13;30.42;;;;;;;;;;5034872;28;20112;-73
2022/12/23 04:52:50;;;;;;;78.10;29.35;;;;;;;;;;5034978;28;20303;-72
2022/12/23 04:55:16;;;;;;;113.25;30.70;;;;;;;;;;5049411;28;20082;-70
2022/12/23 04:57:42;;;;;;;100.38;30.35;;;;;;;;;;5048374;28;20033;-70
2022/12/23 05:00:08;;;;;;;101.28;30.15;;;;;;;;;;5048716;28;20055;-72
2022/12/23 05:02:34;;;;;;;93.68;28.65;;;;;;;;;;5051549;28;20038;-70
2022/12/23 05:05:00;;;;;;;73.18;28.17;;;;;;;;;;5048970;28;20061;-70
2022/12/23 05:07:26;;;;;;;102.97;28.83;;;;;;;;;;5047867;28;20033;-71
2022/12/23 05:09:53;;;;;;;127.32;30.70;;;;;;;;;;5028859;28;20036;-71
2022/12/23 05:12:19;;;;;;;89.38;25.52;;;;;;;;;;5049638;28;20053;-70
2022/12/23 05:14:45;;;;;;;78.13;29.42;;;;;;;;;;5043303;28;20029;-72
2022/12/23 05:17:11;;;;;;;91.65;28.27;;;;;;;;;;5037398;28;20029;-71
2022/12/23 05:19:37;;;;;;;72.28;27.38;;;;;;;;;;5041168;28;20037;-70
2022/12/23 05:22:03;;;;;;;81.03;28.50;;;;;;;;;;5037170;28;20389;-74
2022/12/23 05:24:29;;;;;;;74.63;28.52;;;;;;;;;;5028425;28;20041;-72
2022/12/23 05:26:55;;;;;;;99.78;28.75;;;;;;;;;;5040884;28;20033;-70
2022/12/23 05:29:21;;;;;;;71.70;27.30;;;;;;;;;;5045722;28;20040;-71
2022/12/23 05:31:47;;;;;;;79.78;25.92;;;;;;;;;;5050660;28;20478;-71
2022/12/23 05:34:13;;;;;;;70.45;25.90;;;;;;;;;;5040579;28;20397;-71
2022/12/23 05:36:39;;;;;;;77.10;26.30;;;;;;;;;;5043131;28;20041;-70
2022/12/23 05:39:06;;;;;;;78.85;26.50;;;;;;;;;;5046161;28;20029;-74
2022/12/23 05:41:32;;;;;;;73.95;27.45;;;;;;;;;;5044632;28;20408;-70
2022/12/23 05:43:58;;;;;;;81.22;27.40;;;;;;;;;;5048663;28;20481;-71
2022/12/23 05:46:24;;;;;;;75.32;29.88;;;;;;;;;;5047049;28;20033;-69
2022/12/23 05:48:50;;;;;;;81.03;28.35;;;;;;;;;;5039316;28;20554;-69
2022/12/23 05:51:16;;;;;;;80.88;27.30;;;;;;;;;;5044196;28;20112;-70
2022/12/23 05:53:42;;;;;;;84.85;27.33;;;;;;;;;;5024286;28;20116;-70
2022/12/23 05:56:08;;;;;;;76.63;27.48;;;;;;;;;;5040476;28;20109;-70
2022/12/23 05:58:34;;;;;;;83.57;27.98;;;;;;;;;;5044743;28;20034;-70
2022/12/23 06:01:01;;;;;;;75.28;26.10;;;;;;;;;;5040107;28;20100;-71
2022/12/23 06:03:28;;;;;;;74.00;27.40;;;;;;;;;;5051354;28;20040;-72
2022/12/23 06:05:54;;;;;;;78.18;26.95;;;;;;;;;;5051681;28;20035;-71
2022/12/23 06:08:20;;;;;;;77.25;26.30;;;;;;;;;;5051765;28;20062;-71
2022/12/23 06:10:46;;;;;;;83.03;27.20;;;;;;;;;;5050327;28;20025;-71
2022/12/23 06:13:12;;;;;;;76.10;27.83;;;;;;;;;;5048750;28;20060;-71
2022/12/23 06:15:38;;;;;;;100.05;29.60;;;;;;;;;;5049856;28;20035;-70
2022/12/23 06:18:05;;;;;;;107.15;29.70;;;;;;;;;;5046960;28;20033;-70
2022/12/23 06:20:31;;;;;;;78.85;28.60;;;;;;;;;;5050135;28;20037;-71
2022/12/23 06:22:57;;;;;;;96.85;28.50;;;;;;;;;;5030765;28;20116;-71
2022/12/23 06:25:23;;;;;;;83.38;27.98;;;;;;;;;;5048651;28;20064;-70
2022/12/23 06:27:49;;;;;;;75.68;27.23;;;;;;;;;;5048450;28;20071;-71
2022/12/23 06:30:15;;;;;;;132.65;30.10;;;;;;;;;;5028585;28;20037;-71
2022/12/23 06:32:41;;;;;;;88.63;28.45;;;;;;;;;;5043237;28;20116;-74
2022/12/23 06:35:07;;;;;;;94.13;27.58;;;;;;;;;;5030988;28;20025;-71
2022/12/23 06:37:33;;;;;;;119.75;29.92;;;;;;;;;;5050805;28;20469;-71
2022/12/23 06:39:59;;;;;;;96.78;29.35;;;;;;;;;;5050715;28;20393;-72
2022/12/23 06:42:25;;;;;;;155.27;30.02;;;;;;;;;;5048949;28;20462;-71
2022/12/23 06:44:51;;;;;;;133.40;28.02;;;;;;;;;;5043268;28;20029;-71
2022/12/23 06:47:17;;;;;;;102.95;30.55;;;;;;;;;;5035622;28;20029;-70
2022/12/23 06:49:43;;;;;;;116.07;27.23;;;;;;;;;;5044301;28;20033;-73
2022/12/23 06:52:09;;;;;;;139.52;26.60;;;;;;;;;;5044372;28;20466;-70
2022/12/23 06:54:35;;;;;;;115.93;27.23;;;;;;;;;;5049656;28;20040;-73
2022/12/23 06:57:01;;;;;;;93.65;26.60;;;;;;;;;;5050026;28;20025;-71
2022/12/23 06:59:28;;;;;;;89.68;27.02;;;;;;;;;;5042556;28;20037;-71
2022/12/23 07:01:54;;;;;;;93.82;25.63;;;;;;;;;;5044400;28;20357;-71
2022/12/23 07:04:20;;;;;;;83.35;28.58;;;;;;;;;;5041530;28;20089;-71
2022/12/23 07:06:46;;;;;;;96.90;26.23;;;;;;;;;;5021674;28;20363;-72
2022/12/23 07:09:12;;;;;;;71.35;25.17;;;;;;;;;;5030880;28;20105;-72
2022/12/23 07:11:38;;;;;;;78.82;25.23;;;;;;;;;;5048066;28;20467;-72
2022/12/23 07:14:05;;;;;;;80.22;24.98;;;;;;;;;;5050947;28;20528;-71
2022/12/23 07:16:30;;;;;;;75.97;27.27;;;;;;;;;;5048292;28;20441;-72
2022/12/23 07:18:56;;;;;;;92.72;26.60;;;;;;;;;;5038531;28;20037;-72
2022/12/23 07:21:22;;;;;;;84.60;26.77;;;;;;;;;;5047698;28;20060;-72
2022/12/23 07:23:48;;;;;;;90.90;26.83;;;;;;;;;;5040609;28;20037;-71
2022/12/23 07:26:14;;;;;;;81.93;25.52;;;;;;;;;;5046351;28;20110;-71
2022/12/23 07:28:43;;;;;;;151.57;28.35;;;;;;;;;;5044564;28;20037;-75
2022/12/23 07:31:09;;;;;;;124.95;27.73;;;;;;;;;;5034680;28;20025;-75
2022/12/23 07:33:35;;;;;;;90.38;27.48;;;;;;;;;;5038277;28;20061;-71
2022/12/23 07:36:01;;;;;;;100.72;26.17;;;;;;;;;;5043309;28;20029;-71
2022/12/23 07:38:27;;;;;;;175.20;27.70;;;;;;;;;;5030094;28;20037;-72
2022/12/23 07:40:53;;;;;;;158.75;28.13;;;;;;;;;;5043165;28;20078;-72
2022/12/23 07:43:19;;;;;;;150.52;29.98;;;;;;;;;;5048682;28;20092;-70
2022/12/23 07:45:45;;;;;;;88.97;27.63;;;;;;;;;;5046418;28;20025;-71
2022/12/23 07:48:11;;;;;;;87.63;25.60;;;;;;;;;;5032356;28;20051;-72
2022/12/23 07:50:37;;;;;;;97.43;26.00;;;;;;;;;;5039750;28;20029;-71
2022/12/23 07:53:03;;;;;;;101.13;26.80;;;;;;;;;;5044636;28;20469;-73
2022/12/23 07:55:29;;;;;;;94.82;25.20;;;;;;;;;;5039294;28;20036;-72
2022/12/23 07:57:55;;;;;;;83.75;25.80;;;;;;;;;;5049438;28;20033;-72
2022/12/23 08:00:21;;;;;;;85.30;28.30;;;;;;;;;;5038197;28;20025;-70
2022/12/23 08:02:47;;;;;;;90.97;25.27;;;;;;;;;;5040948;28;20056;-71
2022/12/23 08:05:14;;;;;;;66.72;21.65;;;;;;;;;;5024873;28;20466;-71
2022/12/23 08:07:40;;;;;;;71.78;22.42;;;;;;;;;;5046715;28;20033;-71
2022/12/23 08:10:07;;;;;;;57.28;21.83;;;;;;;;;;5046217;28;20033;-72
2022/12/23 08:12:33;;;;;;;62.92;22.63;;;;;;;;;;5045437;28;20061;-70
2022/12/23 08:14:59;;;;;;;57.75;22.05;;;;;;;;;;5040269;28;20040;-71
2022/12/23 08:17:26;;;;;;;69.45;22.13;;;;;;;;;;5045049;28;20037;-70
2022/12/23 08:19:52;;;;;;;60.28;20.60;;;;;;;;;;5039222;28;20037;-71
2022/12/23 08:22:18;;;;;;;48.78;19.27;;;;;;;;;;5042157;28;20039;-71
2022/12/23 08:24:44;;;;;;;53.33;20.00;;;;;;;;;;5044044;28;20032;-71
2022/12/23 08:27:10;;;;;;;51.58;20.63;;;;;;;;;;5042095;28;20041;-71
2022/12/23 08:29:36;;;;;;;57.53;21.35;;;;;;;;;;5022268;28;20061;-71
2022/12/23 08:32:02;;;;;;;51.13;20.48;;;;;;;;;;5037888;28;20458;-76
2022/12/23 08:34:28;;;;;;;48.53;19.70;;;;;;;;;;5046894;28;20053;-75
2022/12/23 08:36:54;;;;;;;52.05;20.13;;;;;;;;;;5044837;28;20041;-71
2022/12/23 08:39:20;;;;;;;47.78;19.42;;;;;;;;;;5052852;28;20133;-72
2022/12/23 08:41:47;;;;;;;54.88;20.10;;;;;;;;;;5051438;28;20045;-72
2022/12/23 08:44:13;;;;;;;65.75;25.95;;;;;;;;;;5027312;28;20033;-74
2022/12/23 08:46:40;;;;;;;54.42;22.13;;;;;;;;;;5044485;28;20425;-72
2022/12/23 08:49:06;;;;;;;47.00;19.90;;;;;;;;;;5052716;28;20040;-72
2022/12/23 08:51:33;;;;;;;51.67;22.38;;;;;;;;;;5047002;28;20579;-71
2022/12/23 08:53:59;;;;;;;45.63;20.10;;;;;;;;;;5032060;28;20493;-71
2022/12/23 08:56:27;;;;;;;43.80;18.05;;;;;;;;;;5048646;28;22642;-72
2022/12/23 08:58:54;;;;;;;41.50;19.02;;;;;;;;;;5048140;28;20037;-72
2022/12/23 09:01:21;;;;;;;49.15;20.15;;;;;;;;;;5036556;28;20036;-72
2022/12/23 09:03:48;;;;;;;52.10;21.77;;;;;;;;;;5050881;28;20029;-72
2022/12/23 09:06:18;;;;;;;45.88;18.90;;;;;;;;;;5043623;28;20032;-70
2022/12/23 09:08:44;;;;;;;42.50;18.48;;;;;;;;;;5051359;28;20025;-71
2022/12/23 09:11:14;;;;;;;44.17;19.60;;;;;;;;;;5026723;28;20052;-73
2022/12/23 09:13:40;;;;;;;50.25;22.80;;;;;;;;;;5043887;28;20138;-71
2022/12/23 09:16:07;;;;;;;42.75;19.20;;;;;;;;;;5045677;28;20075;-71
2022/12/23 09:18:33;;;;;;;49.28;19.90;;;;;;;;;;5026873;28;20041;-71
2022/12/23 09:21:06;;;;;;;50.55;20.50;;;;;;;;;;5042098;28;20150;-72
2022/12/23 09:23:33;;;;;;;50.97;19.55;;;;;;;;;;5043482;28;20051;-76
2022/12/23 09:25:59;;;;;;;47.00;19.90;;;;;;;;;;5041076;28;20072;-73
2022/12/23 09:28:25;;;;;;;59.42;21.58;;;;;;;;;;5043542;28;20765;-76
2022/12/23 09:30:51;;;;;;;196.77;105.15;;;;;;;;;;5042488;28;20033;-74
2022/12/23 09:33:18;;;;;;;45.33;18.08;;;;;;;;;;5045004;28;20155;-73
2022/12/23 09:35:44;;;;;;;42.35;18.40;;;;;;;;;;5022787;28;20029;-73
2022/12/23 09:38:10;;;;;;;44.72;18.35;;;;;;;;;;5045544;28;20051;-73
2022/12/23 09:40:38;;;;;;;52.58;20.50;;;;;;;;;;5042649;28;20553;-73
2022/12/23 09:43:23;;;;;;;56.70;19.85;;;;;;;;;;5043956;28;20025;-72
2022/12/23 09:45:51;;;;;;;52.10;18.83;;;;;;;;;;5042351;28;20044;-70
2022/12/23 09:48:20;;;;;;;54.47;19.98;;;;;;;;;;5045783;28;20060;-72
2022/12/23 09:50:46;;;;;;;49.40;18.88;;;;;;;;;;5046089;28;20033;-70
2022/12/23 09:53:13;;;;;;;39.97;17.45;;;;;;;;;;5043614;28;20033;-71
2022/12/23 09:55:49;;;;;;;39.55;17.42;;;;;;;;;;5044321;28;20029;-71
2022/12/23 09:58:22;;;;;;;41.53;18.58;;;;;;;;;;5045048;28;20040;-71
2022/12/23 10:00:58;;;;;;;46.47;18.73;;;;;;;;;;5040908;28;21368;-73
2022/12/23 10:03:34;;;;;;;40.72;17.15;;;;;;;;;;5042862;28;20021;-73
2022/12/23 10:06:10;;;;;;;35.33;16.60;;;;;;;;;;5047065;28;20067;-72
2022/12/23 10:08:38;;;;;;;38.20;17.77;;;;;;;;;;5043491;28;22999;-77
2022/12/23 10:11:16;;;;;;;35.60;17.05;;;;;;;;;;5040545;28;20025;-72
2022/12/23 10:14:03;;;;;;;31.50;15.07;;;;;;;;;;5043411;28;20048;-72
2022/12/23 10:16:31;;;;;;;35.58;15.43;;;;;;;;;;5033689;28;20405;-74
2022/12/23 10:19:03;;;;;;;37.58;15.27;;;;;;;;;;5043838;28;20036;-72
2022/12/23 10:21:31;;;;;;;63.63;18.40;;;;;;;;;;5026281;28;20124;-71
2022/12/23 10:23:59;;;;;;;47.33;17.00;;;;;;;;;;5039093;28;20596;-73
2022/12/23 10:26:31;;;;;;;40.10;15.27;;;;;;;;;;5040734;28;20029;-72
2022/12/23 10:29:00;;;;;;;31.97;15.20;;;;;;;;;;5038676;28;20048;-77
2022/12/23 10:31:32;;;;;;;32.67;14.70;;;;;;;;;;5045075;28;20104;-73
2022/12/23 10:34:12;;;;;;;35.47;16.00;;;;;;;;;;5044654;28;20482;-73
2022/12/23 10:36:54;;;;;;;34.58;14.63;;;;;;;;;;5043562;28;20028;-73
2022/12/23 10:39:27;;;;;;;29.08;14.20;;;;;;;;;;5044176;28;20079;-72
2022/12/23 10:42:16;;;;;;;34.65;15.05;;;;;;;;;;5027287;28;20036;-71
2022/12/23 10:44:54;;;;;;;31.75;13.93;;;;;;;;;;5033963;28;20053;-74
2022/12/23 10:47:39;;;;;;;33.80;14.35;;;;;;;;;;5024429;28;20029;-74
2022/12/23 10:50:20;;;;;;;38.88;15.55;;;;;;;;;;5042102;28;20044;-77
2022/12/23 10:52:47;;;;;;;35.15;15.95;;;;;;;;;;5044696;28;20801;-74
2022/12/23 10:55:28;;;;;;;29.05;15.13;;;;;;;;;;5044484;28;20052;-72
2022/12/23 10:57:56;;;;;;;32.15;14.80;;;;;;;;;;5040347;28;20044;-73
2022/12/23 11:00:23;;;;;;;29.40;13.52;;;;;;;;;;5042906;28;20049;-72
2022/12/23 11:03:00;;;;;;;56.80;28.70;;;;;;;;;;5029836;28;20422;-72
2022/12/23 11:05:27;;;;;;;58.58;29.73;;;;;;;;;;5050238;28;20032;-73
2022/12/23 11:07:54;;;;;;;32.67;14.38;;;;;;;;;;5044688;28;20051;-73
2022/12/23 11:10:23;;;;;;;29.17;15.40;;;;;;;;;;5034450;28;20059;-72
2022/12/23 11:12:50;;;;;;;32.45;14.23;;;;;;;;;;5043206;28;20079;-71
2022/12/23 11:15:29;;;;;;;30.67;13.85;;;;;;;;;;5043416;28;20052;-72
2022/12/23 11:17:59;;;;;;;28.15;14.10;;;;;;;;;;5032444;28;20029;-76
2022/12/23 11:20:25;;;;;;;28.63;13.40;;;;;;;;;;5039026;28;20125;-71
2022/12/23 11:22:57;;;;;;;31.75;15.38;;;;;;;;;;5035693;28;20037;-72
2022/12/23 11:25:26;;;;;;;31.42;15.63;;;;;;;;;;5026704;28;20060;-71
2022/12/23 11:28:15;;;;;;;30.25;14.35;;;;;;;;;;5040306;28;20037;-72
2022/12/23 11:30:47;;;;;;;32.92;13.65;;;;;;;;;;5027839;28;20639;-71
2022/12/23 11:33:20;;;;;;;31.40;13.93;;;;;;;;;;5039328;28;20094;-72
2022/12/23 11:35:46;;;;;;;29.02;14.10;;;;;;;;;;5042905;28;20500;-74
2022/12/23 11:38:13;;;;;;;32.08;16.25;;;;;;;;;;5041509;28;20381;-74
2022/12/23 11:40:39;;;;;;;30.83;14.77;;;;;;;;;;5022319;28;20543;-71
2022/12/23 11:43:07;;;;;;;30.25;13.27;;;;;;;;;;5040256;28;20033;-73
2022/12/23 11:45:34;;;;;;;25.98;12.63;;;;;;;;;;5042515;28;20032;-71
2022/12/23 11:48:00;;;;;;;25.85;12.63;;;;;;;;;;5052871;28;20020;-71
2022/12/23 11:50:26;;;;;;;28.13;13.55;;;;;;;;;;5027827;28;20048;-73
2022/12/23 11:52:55;;;;;;;25.05;13.18;;;;;;;;;;5041121;28;20037;-74
2022/12/23 11:55:27;;;;;;;23.27;12.40;;;;;;;;;;5027037;28;20033;-73
2022/12/23 11:57:55;;;;;;;25.33;12.30;;;;;;;;;;5038122;28;20461;-73
2022/12/23 12:00:35;;;;;;;26.17;12.15;;;;;;;;;;5044733;28;20145;-73
2022/12/23 12:03:03;;;;;;;44.55;24.63;;;;;;;;;;5043435;28;20478;-74
2022/12/23 12:05:36;;;;;;;27.63;13.90;;;;;;;;;;5035868;28;20055;-74
2022/12/23 12:08:08;;;;;;;21.05;11.18;;;;;;;;;;5036542;28;20294;-80
2022/12/23 12:10:36;;;;;;;21.33;11.63;;;;;;;;;;5044912;28;20033;-74
2022/12/23 12:13:03;;;;;;;25.52;10.25;;;;;;;;;;5049644;28;20060;-71
2022/12/23 12:15:32;;;;;;;16.52;8.77;;;;;;;;;;5056734;28;20379;-72
2022/12/23 12:17:58;;;;;;;22.67;9.23;;;;;;;;;;5052513;28;20104;-72
2022/12/23 12:20:34;;;;;;;15.52;9.93;;;;;;;;;;5053808;28;20028;-71
2022/12/23 12:23:08;;;;;;;22.48;9.35;;;;;;;;;;5033678;28;20033;-72
2022/12/23 12:25:49;;;;;;;22.27;10.55;;;;;;;;;;5050142;28;20440;-72
2022/12/23 12:28:21;;;;;;;21.65;10.18;;;;;;;;;;5048614;28;20112;-71
2022/12/23 12:30:54;;;;;;;22.90;10.00;;;;;;;;;;5053277;28;20025;-72
2022/12/23 12:33:42;;;;;;;14.88;9.27;;;;;;;;;;5050683;28;20033;-72
2022/12/23 12:36:08;;;;;;;21.02;9.60;;;;;;;;;;5043133;28;20560;-77
2022/12/23 12:38:35;;;;;;;14.80;8.57;;;;;;;;;;5039079;28;20113;-74
2022/12/23 12:41:06;;;;;;;20.35;10.40;;;;;;;;;;5048232;28;20033;-73
2022/12/23 12:43:35;;;;;;;21.63;12.77;;;;;;;;;;5052696;28;20504;-71
2022/12/23 12:46:13;;;;;;;20.38;10.68;;;;;;;;;;5053654;28;20091;-71
2022/12/23 12:48:52;;;;;;;16.92;11.20;;;;;;;;;;5051903;28;20083;-71
2022/12/23 12:51:37;;;;;;;28.45;11.20;;;;;;;;;;5053258;28;20043;-71
2022/12/23 12:54:22;;;;;;;25.95;9.75;;;;;;;;;;5052538;28;20044;-71
2022/12/23 12:56:49;;;;;;;19.73;10.23;;;;;;;;;;5049832;28;20037;-71
2022/12/23 12:59:16;;;;;;;21.73;10.65;;;;;;;;;;5035234;28;20030;-71
2022/12/23 13:01:42;;;;;;;17.50;9.35;;;;;;;;;;5046672;28;20071;-71
2022/12/23 13:04:11;;;;;;;15.55;8.90;;;;;;;;;;5052626;28;20056;-72
2022/12/23 13:06:37;;;;;;;18.48;8.40;;;;;;;;;;5035331;28;20469;-73
2022/12/23 13:09:07;;;;;;;18.67;9.63;;;;;;;;;;5049511;28;20106;-72
2022/12/23 13:11:39;;;;;;;14.90;9.38;;;;;;;;;;5051100;28;20128;-71
2022/12/23 13:14:12;;;;;;;16.37;9.70;;;;;;;;;;5049066;28;20049;-71
2022/12/23 13:16:49;;;;;;;16.05;8.23;;;;;;;;;;5051935;28;20286;-72
2022/12/23 13:19:21;;;;;;;16.35;8.40;;;;;;;;;;5052677;28;20025;-71
2022/12/23 13:21:59;;;;;;;21.58;8.82;;;;;;;;;;5022866;28;20037;-74
2022/12/23 13:24:44;;;;;;;15.88;7.53;;;;;;;;;;5043699;28;20060;-72
2022/12/23 13:27:12;;;;;;;16.75;8.98;;;;;;;;;;5031606;28;20472;-70
2022/12/23 13:29:58;;;;;;;17.38;8.35;;;;;;;;;;5048303;28;20033;-71
2022/12/23 13:32:44;;;;;;;18.17;8.98;;;;;;;;;;5050612;28;20104;-71
2022/12/23 13:35:14;;;;;;;22.35;8.40;;;;;;;;;;5052121;28;20501;-72
2022/12/23 13:37:46;;;;;;;21.02;8.73;;;;;;;;;;5052257;28;20100;-71
2022/12/23 13:40:12;;;;;;;15.98;7.80;;;;;;;;;;5052222;28;20062;-71
2022/12/23 13:42:42;;;;;;;17.60;9.00;;;;;;;;;;5049633;28;20033;-71
2022/12/23 13:45:16;;;;;;;19.45;9.13;;;;;;;;;;5032344;28;20396;-70
2022/12/23 13:47:42;;;;;;;16.25;7.72;;;;;;;;;;5051935;28;20351;-71
2022/12/23 13:50:14;;;;;;;17.52;9.02;;;;;;;;;;5051055;28;20497;-71
2022/12/23 13:52:40;;;;;;;;;;;;;;;;;;5052795;28;20036;-72
2022/12/23 13:55:06;;;;;;;18.33;8.90;;;;;;;;;;5050711;28;20396;-72
2022/12/23 13:57:49;;;;;;;16.00;9.00;;;;;;;;;;5049488;28;20025;-71
2022/12/23 14:00:15;;;;;;;21.60;9.95;;;;;;;;;;5045870;28;20029;-74
2022/12/23 14:02:59;;;;;;;19.40;9.57;;;;;;;;;;5048231;28;20355;-72
2022/12/23 14:05:28;;;;;;;23.77;11.10;;;;;;;;;;5041716;28;20034;-71
2022/12/23 14:07:54;;;;;;;30.60;10.75;;;;;;;;;;5034122;28;20025;-71
2022/12/23 14:10:22;;;;;;;29.77;10.98;;;;;;;;;;5047195;28;20045;-71
2022/12/23 14:12:50;;;;;;;22.38;9.90;;;;;;;;;;5030743;28;20048;-70
2022/12/23 14:15:19;;;;;;;23.00;9.70;;;;;;;;;;5032804;28;20048;-70
2022/12/23 14:17:52;;;;;;;20.65;10.10;;;;;;;;;;5025671;28;20076;-69
2022/12/23 14:20:36;;;;;;;18.33;9.18;;;;;;;;;;5039324;28;20033;-71
2022/12/23 14:23:02;;;;;;;19.08;10.30;;;;;;;;;;5031735;28;20021;-70
2022/12/23 14:25:28;;;;;;;24.33;11.13;;;;;;;;;;5031737;28;20516;-76
2022/12/23 14:27:54;;;;;;;26.08;10.68;;;;;;;;;;5040682;28;20119;-70
2022/12/23 14:30:33;;;;;;;21.42;10.00;;;;;;;;;;5041069;28;20028;-69
2022/12/23 14:33:01;;;;;;;18.63;9.30;;;;;;;;;;5038030;28;20087;-71
2022/12/23 14:35:27;;;;;;;18.58;10.38;;;;;;;;;;5038052;28;20490;-70
2022/12/23 14:38:05;;;;;;;22.10;11.18;;;;;;;;;;5033538;28;20526;-72
2022/12/23 14:40:37;;;;;;;27.33;10.20;;;;;;;;;;5033518;28;20033;-73
2022/12/23 14:43:21;;;;;;;16.70;10.25;;;;;;;;;;5043060;28;20300;-69
2022/12/23 14:45:54;;;;;;;17.02;9.23;;;;;;;;;;5046666;28;20447;-74
2022/12/23 14:48:32;;;;;;;17.65;9.25;;;;;;;;;;5046237;28;20059;-72
2022/12/23 14:51:02;;;;;;;22.17;9.07;;;;;;;;;;5043333;28;20315;-72